sensor_id;sensor_type;location;lat;lon;timestamp;temperature;humidity
25360;DHT22;13311;51.386;0.016;2024-02-14T00:03:52;13.90;99.90
25360;DHT22;13311;51.386;0.016;2024-02-14T00:08:53;13.90;99.90
25360;DHT22;13311;51.386;0.016;2024-02-14T00:13:53;13.90;99.90
25360;DHT22;13311;51.386;0.016;2024-02-14T00:18:56;14.00;99.90
25360;DHT22;13311;51.386;0.016;2024-02-14T00:23:57;14.00;99.90
25360;DHT22;13311;51.386;0.016;2024-02-14T00:28:58;14.00;99.90
25360;DHT22;13311;51.386;0.016;2024-02-14T00:33:59;14.00;99.90
25360;DHT22;13311;51.386;0.016;2024-02-14T00:39:00;14.00;99.90
25360;DHT22;13311;51.386;0.016;2024-02-14T00:44:01;13.90;99.90
25360;DHT22;13311;51.386;0.016;2024-02-14T00:49:03;14.00;99.90
25360;DHT22;13311;51.386;0.016;2024-02-14T00:54:04;14.10;99.90
25360;DHT22;13311;51.386;0.016;2024-02-14T00:59:05;14.10;99.90
25360;DHT22;13311;51.386;0.016;2024-02-14T01:04:06;14.20;99.90
25360;DHT22;13311;51.386;0.016;2024-02-14T01:09:07;14.10;99.90
25360;DHT22;13311;51.386;0.016;2024-02-14T01:14:09;14.10;99.90
25360;DHT22;13311;51.386;0.016;2024-02-14T01:19:10;14.10;99.90
25360;DHT22;13311;51.386;0.016;2024-02-14T01:24:11;14.10;99.90
25360;DHT22;13311;51.386;0.016;2024-02-14T01:29:12;14.20;99.90
25360;DHT22;13311;51.386;0.016;2024-02-14T01:34:13;14.20;99.90
25360;DHT22;13311;51.386;0.016;2024-02-14T01:39:14;14.30;99.90
25360;DHT22;13311;51.386;0.016;2024-02-14T01:44:15;14.30;99.90
25360;DHT22;13311;51.386;0.016;2024-02-14T01:49:17;14.20;99.90
25360;DHT22;13311;51.386;0.016;2024-02-14T01:54:17;14.20;99.90
25360;DHT22;13311;51.386;0.016;2024-02-14T01:59:20;14.20;99.90
25360;DHT22;13311;51.386;0.016;2024-02-14T02:04:21;14.10;99.90
25360;DHT22;13311;51.386;0.016;2024-02-14T02:09:22;14.10;99.90
25360;DHT22;13311;51.386;0.016;2024-02-14T02:14:23;14.10;99.90
25360;DHT22;13311;51.386;0.016;2024-02-14T02:19:24;14.10;99.90
25360;DHT22;13311;51.386;0.016;2024-02-14T02:24:25;14.10;99.90
25360;DHT22;13311;51.386;0.016;2024-02-14T02:29:25;14.20;99.90
25360;DHT22;13311;51.386;0.016;2024-02-14T02:34:26;14.10;99.90
25360;DHT22;13311;51.386;0.016;2024-02-14T02:39:27;14.20;99.90
25360;DHT22;13311;51.386;0.016;2024-02-14T02:44:28;14.20;99.90
25360;DHT22;13311;51.386;0.016;2024-02-14T02:49:29;14.20;99.90
25360;DHT22;13311;51.386;0.016;2024-02-14T02:54:30;14.30;99.90
25360;DHT22;13311;51.386;0.016;2024-02-14T02:59:30;14.40;99.90
25360;DHT22;13311;51.386;0.016;2024-02-14T03:04:32;14.40;99.90
25360;DHT22;13311;51.386;0.016;2024-02-14T03:09:37;14.50;99.90
25360;DHT22;13311;51.386;0.016;2024-02-14T03:14:37;14.40;99.90
25360;DHT22;13311;51.386;0.016;2024-02-14T03:19:40;14.40;99.90
25360;DHT22;13311;51.386;0.016;2024-02-14T03:24:40;14.50;99.90
25360;DHT22;13311;51.386;0.016;2024-02-14T03:29:44;14.50;99.90
25360;DHT22;13311;51.386;0.016;2024-02-14T03:34:45;14.50;99.90
25360;DHT22;13311;51.386;0.016;2024-02-14T03:39:46;14.50;99.90
25360;DHT22;13311;51.386;0.016;2024-02-14T03:44:47;14.50;99.90
25360;DHT22;13311;51.386;0.016;2024-02-14T03:49:48;14.40;99.90
25360;DHT22;13311;51.386;0.016;2024-02-14T03:54:49;14.50;99.90
25360;DHT22;13311;51.386;0.016;2024-02-14T03:59:50;14.50;99.90
25360;DHT22;13311;51.386;0.016;2024-02-14T04:04:51;14.60;99.90
25360;DHT22;13311;51.386;0.016;2024-02-14T04:09:52;14.50;99.90
25360;DHT22;13311;51.386;0.016;2024-02-14T04:14:52;14.50;99.90
25360;DHT22;13311;51.386;0.016;2024-02-14T04:19:53;14.50;99.90
25360;DHT22;13311;51.386;0.016;2024-02-14T04:24:54;14.60;99.90
25360;DHT22;13311;51.386;0.016;2024-02-14T04:29:54;14.60;99.90
25360;DHT22;13311;51.386;0.016;2024-02-14T04:34:55;14.60;99.90
25360;DHT22;13311;51.386;0.016;2024-02-14T04:39:56;14.60;99.90
25360;DHT22;13311;51.386;0.016;2024-02-14T04:44:57;14.60;99.90
25360;DHT22;13311;51.386;0.016;2024-02-14T04:49:58;14.60;99.90
25360;DHT22;13311;51.386;0.016;2024-02-14T04:55:00;14.60;99.90
25360;DHT22;13311;51.386;0.016;2024-02-14T05:00:01;14.60;99.90
25360;DHT22;13311;51.386;0.016;2024-02-14T05:05:05;14.60;99.90
25360;DHT22;13311;51.386;0.016;2024-02-14T05:10:06;14.60;99.90
25360;DHT22;13311;51.386;0.016;2024-02-14T05:15:08;14.60;99.90
25360;DHT22;13311;51.386;0.016;2024-02-14T05:20:10;14.60;99.90
25360;DHT22;13311;51.386;0.016;2024-02-14T05:25:11;14.60;99.90
25360;DHT22;13311;51.386;0.016;2024-02-14T05:30:11;14.60;99.90
25360;DHT22;13311;51.386;0.016;2024-02-14T05:35:12;14.60;99.90
25360;DHT22;13311;51.386;0.016;2024-02-14T05:40:13;14.60;99.90
25360;DHT22;13311;51.386;0.016;2024-02-14T05:45:14;14.50;99.90
25360;DHT22;13311;51.386;0.016;2024-02-14T05:50:15;14.60;99.90
25360;DHT22;13311;51.386;0.016;2024-02-14T05:55:16;14.60;99.90
25360;DHT22;13311;51.386;0.016;2024-02-14T06:00:16;14.60;99.90
25360;DHT22;13311;51.386;0.016;2024-02-14T06:05:19;14.50;99.90
25360;DHT22;13311;51.386;0.016;2024-02-14T06:10:20;14.60;99.90
25360;DHT22;13311;51.386;0.016;2024-02-14T06:15:21;14.50;99.90
25360;DHT22;13311;51.386;0.016;2024-02-14T06:20:22;14.50;99.90
25360;DHT22;13311;51.386;0.016;2024-02-14T06:25:23;14.40;99.90
25360;DHT22;13311;51.386;0.016;2024-02-14T06:30:24;14.40;99.90
25360;DHT22;13311;51.386;0.016;2024-02-14T06:35:24;14.40;99.90
25360;DHT22;13311;51.386;0.016;2024-02-14T06:40:25;14.30;99.90
25360;DHT22;13311;51.386;0.016;2024-02-14T06:45:28;14.40;99.90
25360;DHT22;13311;51.386;0.016;2024-02-14T06:50:29;14.50;99.90
25360;DHT22;13311;51.386;0.016;2024-02-14T06:55:30;14.40;99.90
25360;DHT22;13311;51.386;0.016;2024-02-14T07:00:33;14.40;99.90
25360;DHT22;13311;51.386;0.016;2024-02-14T07:05:34;14.40;99.90
25360;DHT22;13311;51.386;0.016;2024-02-14T07:10:35;14.40;99.90
25360;DHT22;13311;51.386;0.016;2024-02-14T07:15:36;14.20;99.90
25360;DHT22;13311;51.386;0.016;2024-02-14T07:20:36;14.20;99.90
25360;DHT22;13311;51.386;0.016;2024-02-14T07:25:37;14.20;99.90
25360;DHT22;13311;51.386;0.016;2024-02-14T07:30:38;14.20;99.90
25360;DHT22;13311;51.386;0.016;2024-02-14T07:35:39;14.30;99.90
25360;DHT22;13311;51.386;0.016;2024-02-14T07:40:40;14.40;99.90
25360;DHT22;13311;51.386;0.016;2024-02-14T07:45:42;14.40;99.90
25360;DHT22;13311;51.386;0.016;2024-02-14T07:50:42;14.50;99.90
25360;DHT22;13311;51.386;0.016;2024-02-14T07:55:43;14.70;99.90
25360;DHT22;13311;51.386;0.016;2024-02-14T08:00:44;14.60;99.90
25360;DHT22;13311;51.386;0.016;2024-02-14T08:05:44;14.60;99.90
25360;DHT22;13311;51.386;0.016;2024-02-14T08:10:45;14.70;99.90
25360;DHT22;13311;51.386;0.016;2024-02-14T08:15:46;14.70;99.90
25360;DHT22;13311;51.386;0.016;2024-02-14T08:20:47;14.80;99.90
25360;DHT22;13311;51.386;0.016;2024-02-14T08:25:47;14.70;99.90
25360;DHT22;13311;51.386;0.016;2024-02-14T08:30:49;14.70;99.90
25360;DHT22;13311;51.386;0.016;2024-02-14T08:35:50;14.80;99.90
25360;DHT22;13311;51.386;0.016;2024-02-14T08:40:50;14.80;99.90
25360;DHT22;13311;51.386;0.016;2024-02-14T08:45:51;14.80;99.90
25360;DHT22;13311;51.386;0.016;2024-02-14T08:50:52;14.90;99.90
25360;DHT22;13311;51.386;0.016;2024-02-14T08:55:53;15.00;99.90
25360;DHT22;13311;51.386;0.016;2024-02-14T09:00:54;14.90;99.90
25360;DHT22;13311;51.386;0.016;2024-02-14T09:05:55;14.80;99.90
25360;DHT22;13311;51.386;0.016;2024-02-14T09:10:57;14.90;99.90
25360;DHT22;13311;51.386;0.016;2024-02-14T09:15:59;14.90;99.90
25360;DHT22;13311;51.386;0.016;2024-02-14T09:21:00;14.90;99.90
25360;DHT22;13311;51.386;0.016;2024-02-14T09:26:01;15.00;99.90
25360;DHT22;13311;51.386;0.016;2024-02-14T09:31:03;15.00;99.90
25360;DHT22;13311;51.386;0.016;2024-02-14T09:36:05;15.10;99.90
25360;DHT22;13311;51.386;0.016;2024-02-14T09:41:23;15.00;99.90
25360;DHT22;13311;51.386;0.016;2024-02-14T09:46:26;15.00;99.90
25360;DHT22;13311;51.386;0.016;2024-02-14T09:51:29;14.90;99.90
25360;DHT22;13311;51.386;0.016;2024-02-14T09:56:30;14.90;99.90
25360;DHT22;13311;51.386;0.016;2024-02-14T10:01:32;14.90;99.90
25360;DHT22;13311;51.386;0.016;2024-02-14T10:06:33;15.00;99.90
25360;DHT22;13311;51.386;0.016;2024-02-14T10:11:35;15.00;99.90
25360;DHT22;13311;51.386;0.016;2024-02-14T10:16:36;15.10;99.90
25360;DHT22;13311;51.386;0.016;2024-02-14T10:21:37;15.10;99.90
25360;DHT22;13311;51.386;0.016;2024-02-14T10:26:39;15.10;99.90
25360;DHT22;13311;51.386;0.016;2024-02-14T10:31:40;15.00;99.90
25360;DHT22;13311;51.386;0.016;2024-02-14T10:36:43;15.10;99.90
25360;DHT22;13311;51.386;0.016;2024-02-14T10:41:44;15.10;99.90
25360;DHT22;13311;51.386;0.016;2024-02-14T10:46:46;15.20;99.90
25360;DHT22;13311;51.386;0.016;2024-02-14T10:51:50;15.20;99.90
25360;DHT22;13311;51.386;0.016;2024-02-14T10:56:54;15.20;99.90
25360;DHT22;13311;51.386;0.016;2024-02-14T11:01:56;15.10;99.90
25360;DHT22;13311;51.386;0.016;2024-02-14T11:06:58;15.20;99.90
25360;DHT22;13311;51.386;0.016;2024-02-14T11:12:03;15.30;99.90
25360;DHT22;13311;51.386;0.016;2024-02-14T11:17:12;15.40;99.90
25360;DHT22;13311;51.386;0.016;2024-02-14T11:22:18;15.40;99.90
25360;DHT22;13311;51.386;0.016;2024-02-14T11:27:20;15.50;99.90
25360;DHT22;13311;51.386;0.016;2024-02-14T11:32:23;15.60;99.90
25360;DHT22;13311;51.386;0.016;2024-02-14T11:37:29;15.60;99.90
25360;DHT22;13311;51.386;0.016;2024-02-14T11:42:30;15.70;99.90
25360;DHT22;13311;51.386;0.016;2024-02-14T11:47:31;15.80;99.90
25360;DHT22;13311;51.386;0.016;2024-02-14T11:52:32;15.90;99.90
25360;DHT22;13311;51.386;0.016;2024-02-14T11:57:37;15.90;99.90
25360;DHT22;13311;51.386;0.016;2024-02-14T12:02:38;15.80;99.90
25360;DHT22;13311;51.386;0.016;2024-02-14T12:07:39;15.90;99.90
25360;DHT22;13311;51.386;0.016;2024-02-14T12:12:40;15.90;99.90
25360;DHT22;13311;51.386;0.016;2024-02-14T12:17:41;15.90;99.90
25360;DHT22;13311;51.386;0.016;2024-02-14T12:22:42;15.90;99.90
25360;DHT22;13311;51.386;0.016;2024-02-14T12:27:52;16.00;99.90
25360;DHT22;13311;51.386;0.016;2024-02-14T12:32:59;16.10;99.90
25360;DHT22;13311;51.386;0.016;2024-02-14T12:38:01;16.00;99.90
25360;DHT22;13311;51.386;0.016;2024-02-14T12:43:02;16.10;99.90
25360;DHT22;13311;51.386;0.016;2024-02-14T12:48:04;16.20;99.90
25360;DHT22;13311;51.386;0.016;2024-02-14T12:53:08;16.20;99.90
25360;DHT22;13311;51.386;0.016;2024-02-14T12:58:10;16.30;99.90
25360;DHT22;13311;51.386;0.016;2024-02-14T13:03:11;16.20;99.90
25360;DHT22;13311;51.386;0.016;2024-02-14T13:08:12;16.20;99.90
25360;DHT22;13311;51.386;0.016;2024-02-14T13:13:13;16.10;99.90
25360;DHT22;13311;51.386;0.016;2024-02-14T13:18:14;16.20;99.90
25360;DHT22;13311;51.386;0.016;2024-02-14T13:23:16;16.30;99.90
25360;DHT22;13311;51.386;0.016;2024-02-14T13:28:17;16.40;99.90
25360;DHT22;13311;51.386;0.016;2024-02-14T13:33:18;16.30;99.90
25360;DHT22;13311;51.386;0.016;2024-02-14T13:38:18;16.00;99.90
25360;DHT22;13311;51.386;0.016;2024-02-14T13:43:19;15.80;99.90
25360;DHT22;13311;51.386;0.016;2024-02-14T13:48:20;15.70;99.90
25360;DHT22;13311;51.386;0.016;2024-02-14T13:53:20;15.50;99.90
25360;DHT22;13311;51.386;0.016;2024-02-14T13:58:23;15.60;99.90
25360;DHT22;13311;51.386;0.016;2024-02-14T14:03:24;15.80;99.90
25360;DHT22;13311;51.386;0.016;2024-02-14T14:08:24;15.80;99.90
25360;DHT22;13311;51.386;0.016;2024-02-14T14:13:25;16.00;99.90
25360;DHT22;13311;51.386;0.016;2024-02-14T14:18:29;16.20;99.90
25360;DHT22;13311;51.386;0.016;2024-02-14T14:23:30;16.30;99.90
25360;DHT22;13311;51.386;0.016;2024-02-14T14:28:31;16.40;99.90
25360;DHT22;13311;51.386;0.016;2024-02-14T14:33:32;16.40;99.90
25360;DHT22;13311;51.386;0.016;2024-02-14T14:38:33;16.30;99.90
25360;DHT22;13311;51.386;0.016;2024-02-14T14:43:34;16.40;99.90
25360;DHT22;13311;51.386;0.016;2024-02-14T14:48:34;16.30;99.90
25360;DHT22;13311;51.386;0.016;2024-02-14T14:53:35;16.30;99.90
25360;DHT22;13311;51.386;0.016;2024-02-14T14:58:36;16.40;99.90
25360;DHT22;13311;51.386;0.016;2024-02-14T15:03:37;16.30;99.90
25360;DHT22;13311;51.386;0.016;2024-02-14T15:08:38;16.30;99.90
25360;DHT22;13311;51.386;0.016;2024-02-14T15:13:39;16.30;99.90
25360;DHT22;13311;51.386;0.016;2024-02-14T15:18:40;16.40;99.90
25360;DHT22;13311;51.386;0.016;2024-02-14T15:23:43;16.40;99.90
25360;DHT22;13311;51.386;0.016;2024-02-14T15:28:45;16.40;99.90
25360;DHT22;13311;51.386;0.016;2024-02-14T15:33:45;16.40;99.90
25360;DHT22;13311;51.386;0.016;2024-02-14T15:38:46;16.40;99.90
25360;DHT22;13311;51.386;0.016;2024-02-14T15:43:48;16.40;99.90
25360;DHT22;13311;51.386;0.016;2024-02-14T15:48:49;16.40;99.90
25360;DHT22;13311;51.386;0.016;2024-02-14T15:53:50;16.30;99.90
25360;DHT22;13311;51.386;0.016;2024-02-14T15:58:51;16.40;99.90
25360;DHT22;13311;51.386;0.016;2024-02-14T16:03:51;16.40;99.90
25360;DHT22;13311;51.386;0.016;2024-02-14T16:08:52;16.30;99.90
25360;DHT22;13311;51.386;0.016;2024-02-14T16:13:53;16.30;99.90
25360;DHT22;13311;51.386;0.016;2024-02-14T16:18:54;16.20;99.90
25360;DHT22;13311;51.386;0.016;2024-02-14T16:23:55;16.20;99.90
25360;DHT22;13311;51.386;0.016;2024-02-14T16:28:55;16.10;99.90
25360;DHT22;13311;51.386;0.016;2024-02-14T16:33:56;16.10;99.90
25360;DHT22;13311;51.386;0.016;2024-02-14T16:38:57;16.10;99.90
25360;DHT22;13311;51.386;0.016;2024-02-14T16:43:57;16.10;99.90
25360;DHT22;13311;51.386;0.016;2024-02-14T16:48:58;15.90;99.90
25360;DHT22;13311;51.386;0.016;2024-02-14T16:53:59;15.90;99.90
25360;DHT22;13311;51.386;0.016;2024-02-14T16:59:00;15.90;99.90
25360;DHT22;13311;51.386;0.016;2024-02-14T17:04:00;15.90;99.90
25360;DHT22;13311;51.386;0.016;2024-02-14T17:09:01;15.90;99.90
25360;DHT22;13311;51.386;0.016;2024-02-14T17:14:03;15.90;99.90
25360;DHT22;13311;51.386;0.016;2024-02-14T17:19:08;15.90;99.90
25360;DHT22;13311;51.386;0.016;2024-02-14T17:24:09;15.80;99.90
25360;DHT22;13311;51.386;0.016;2024-02-14T17:29:10;15.80;99.90
25360;DHT22;13311;51.386;0.016;2024-02-14T17:34:11;15.90;99.90
25360;DHT22;13311;51.386;0.016;2024-02-14T17:39:12;15.80;99.90
25360;DHT22;13311;51.386;0.016;2024-02-14T17:44:13;15.70;99.90
25360;DHT22;13311;51.386;0.016;2024-02-14T17:49:13;15.80;99.90
25360;DHT22;13311;51.386;0.016;2024-02-14T17:54:16;15.80;99.90
25360;DHT22;13311;51.386;0.016;2024-02-14T17:59:18;15.80;99.90
25360;DHT22;13311;51.386;0.016;2024-02-14T18:04:18;15.90;99.90
25360;DHT22;13311;51.386;0.016;2024-02-14T18:09:20;15.80;99.90
25360;DHT22;13311;51.386;0.016;2024-02-14T18:14:20;15.80;99.90
25360;DHT22;13311;51.386;0.016;2024-02-14T18:19:21;15.80;99.90
25360;DHT22;13311;51.386;0.016;2024-02-14T18:24:22;15.90;99.90
25360;DHT22;13311;51.386;0.016;2024-02-14T18:29:23;15.70;99.90
25360;DHT22;13311;51.386;0.016;2024-02-14T18:34:24;15.70;99.90
25360;DHT22;13311;51.386;0.016;2024-02-14T18:39:24;15.80;99.90
25360;DHT22;13311;51.386;0.016;2024-02-14T18:44:25;15.80;99.90
25360;DHT22;13311;51.386;0.016;2024-02-14T18:49:26;15.70;99.90
25360;DHT22;13311;51.386;0.016;2024-02-14T18:54:27;15.70;99.90
25360;DHT22;13311;51.386;0.016;2024-02-14T18:59:27;15.60;99.90
25360;DHT22;13311;51.386;0.016;2024-02-14T19:04:28;15.60;99.90
25360;DHT22;13311;51.386;0.016;2024-02-14T19:09:29;15.50;99.90
25360;DHT22;13311;51.386;0.016;2024-02-14T19:14:31;15.50;99.90
25360;DHT22;13311;51.386;0.016;2024-02-14T19:19:33;15.50;99.90
25360;DHT22;13311;51.386;0.016;2024-02-14T19:24:37;15.50;99.90
25360;DHT22;13311;51.386;0.016;2024-02-14T19:29:39;15.60;99.90
25360;DHT22;13311;51.386;0.016;2024-02-14T19:34:40;15.50;99.90
25360;DHT22;13311;51.386;0.016;2024-02-14T19:39:41;15.60;99.90
25360;DHT22;13311;51.386;0.016;2024-02-14T19:44:42;15.60;99.90
25360;DHT22;13311;51.386;0.016;2024-02-14T19:49:42;15.50;99.90
25360;DHT22;13311;51.386;0.016;2024-02-14T19:54:43;15.50;99.90
25360;DHT22;13311;51.386;0.016;2024-02-14T19:59:44;15.40;99.90
25360;DHT22;13311;51.386;0.016;2024-02-14T20:04:44;15.40;99.90
25360;DHT22;13311;51.386;0.016;2024-02-14T20:09:45;15.30;99.90
25360;DHT22;13311;51.386;0.016;2024-02-14T20:14:46;15.20;99.90
25360;DHT22;13311;51.386;0.016;2024-02-14T20:19:47;15.20;99.90
25360;DHT22;13311;51.386;0.016;2024-02-14T20:24:47;15.20;99.90
25360;DHT22;13311;51.386;0.016;2024-02-14T20:29:48;15.20;99.90
25360;DHT22;13311;51.386;0.016;2024-02-14T20:34:49;15.00;99.90
25360;DHT22;13311;51.386;0.016;2024-02-14T20:39:50;15.00;99.90
25360;DHT22;13311;51.386;0.016;2024-02-14T20:44:50;15.00;99.90
25360;DHT22;13311;51.386;0.016;2024-02-14T20:49:51;15.10;99.90
25360;DHT22;13311;51.386;0.016;2024-02-14T20:54:55;14.90;99.90
25360;DHT22;13311;51.386;0.016;2024-02-14T20:59:56;14.90;99.90
25360;DHT22;13311;51.386;0.016;2024-02-14T21:04:57;14.80;99.90
25360;DHT22;13311;51.386;0.016;2024-02-14T21:09:58;14.70;99.90
25360;DHT22;13311;51.386;0.016;2024-02-14T21:14:58;14.70;99.90
25360;DHT22;13311;51.386;0.016;2024-02-14T21:19:59;14.90;99.90
25360;DHT22;13311;51.386;0.016;2024-02-14T21:25:00;15.00;99.90
25360;DHT22;13311;51.386;0.016;2024-02-14T21:30:00;15.00;99.90
25360;DHT22;13311;51.386;0.016;2024-02-14T21:35:01;15.20;99.90
25360;DHT22;13311;51.386;0.016;2024-02-14T21:40:04;15.00;99.90
25360;DHT22;13311;51.386;0.016;2024-02-14T21:45:05;14.90;99.90
25360;DHT22;13311;51.386;0.016;2024-02-14T21:50:07;14.90;99.90
25360;DHT22;13311;51.386;0.016;2024-02-14T21:55:09;14.90;99.90
25360;DHT22;13311;51.386;0.016;2024-02-14T22:00:10;14.80;99.90
25360;DHT22;13311;51.386;0.016;2024-02-14T22:05:12;14.80;99.90
25360;DHT22;13311;51.386;0.016;2024-02-14T22:10:13;14.70;99.90
25360;DHT22;13311;51.386;0.016;2024-02-14T22:15:14;14.80;99.90
25360;DHT22;13311;51.386;0.016;2024-02-14T22:20:15;14.80;99.90
25360;DHT22;13311;51.386;0.016;2024-02-14T22:25:18;14.80;99.90
25360;DHT22;13311;51.386;0.016;2024-02-14T22:30:19;14.70;99.90
25360;DHT22;13311;51.386;0.016;2024-02-14T22:35:20;14.60;99.90
25360;DHT22;13311;51.386;0.016;2024-02-14T22:40:21;14.60;99.90
25360;DHT22;13311;51.386;0.016;2024-02-14T22:45:22;14.60;99.90
25360;DHT22;13311;51.386;0.016;2024-02-14T22:50:23;14.60;99.90
25360;DHT22;13311;51.386;0.016;2024-02-14T22:55:24;14.60;99.90
25360;DHT22;13311;51.386;0.016;2024-02-14T23:00:25;14.70;99.90
25360;DHT22;13311;51.386;0.016;2024-02-14T23:05:27;14.70;99.90
25360;DHT22;13311;51.386;0.016;2024-02-14T23:10:28;14.80;99.90
25360;DHT22;13311;51.386;0.016;2024-02-14T23:15:29;14.90;99.90
25360;DHT22;13311;51.386;0.016;2024-02-14T23:20:29;14.70;99.90
25360;DHT22;13311;51.386;0.016;2024-02-14T23:25:32;14.80;99.90
25360;DHT22;13311;51.386;0.016;2024-02-14T23:30:32;14.90;99.90
25360;DHT22;13311;51.386;0.016;2024-02-14T23:35:35;15.00;99.90
25360;DHT22;13311;51.386;0.016;2024-02-14T23:40:35;15.10;99.90
25360;DHT22;13311;51.386;0.016;2024-02-14T23:45:36;15.20;99.90
25360;DHT22;13311;51.386;0.016;2024-02-14T23:50:37;15.20;99.90
25360;DHT22;13311;51.386;0.016;2024-02-14T23:55:38;15.30;99.90
